sensor_id;sensor_type;location;lat;lon;timestamp;temperature;humidity
41290;DHT22;36117;46.680;11.154;2022-10-22T11:37:47;19.80;82.40
41290;DHT22;36117;46.680;11.154;2022-10-22T11:40:32;19.80;83.80
41290;DHT22;36117;46.680;11.154;2022-10-22T11:43:04;20.10;83.60
41290;DHT22;36117;46.680;11.154;2022-10-22T11:45:36;19.90;83.80
41290;DHT22;36117;46.680;11.154;2022-10-22T11:48:17;20.20;82.80
41290;DHT22;36117;46.680;11.154;2022-10-22T11:50:58;20.50;81.20
41290;DHT22;36117;46.680;11.154;2022-10-22T11:53:32;21.10;80.30
41290;DHT22;36117;46.680;11.154;2022-10-22T11:58:39;21.60;77.80
41290;DHT22;36117;46.680;11.154;2022-10-22T12:14:02;22.70;71.00
41290;DHT22;36117;46.680;11.154;2022-10-22T12:16:43;23.00;70.10
41290;DHT22;36117;46.680;11.154;2022-10-22T12:21:37;23.30;67.70
41290;DHT22;36117;46.680;11.154;2022-10-22T12:24:05;23.80;67.80
41290;DHT22;36117;46.680;11.154;2022-10-22T12:26:32;24.50;66.20
41290;DHT22;36117;46.680;11.154;2022-10-22T12:29:05;24.70;63.90
41290;DHT22;36117;46.680;11.154;2022-10-22T12:31:37;24.20;63.60
41290;DHT22;36117;46.680;11.154;2022-10-22T12:34:03;24.20;63.70
41290;DHT22;36117;46.680;11.154;2022-10-22T12:36:31;24.20;63.30
41290;DHT22;36117;46.680;11.154;2022-10-22T12:39:02;24.20;61.90
41290;DHT22;36117;46.680;11.154;2022-10-22T12:41:33;24.00;62.90
41290;DHT22;36117;46.680;11.154;2022-10-22T12:44:00;23.90;63.10
41290;DHT22;36117;46.680;11.154;2022-10-22T12:46:29;23.90;61.70
41290;DHT22;36117;46.680;11.154;2022-10-22T12:48:59;24.20;61.60
41290;DHT22;36117;46.680;11.154;2022-10-22T12:51:25;24.30;61.60
41290;DHT22;36117;46.680;11.154;2022-10-22T12:53:55;24.20;60.80
41290;DHT22;36117;46.680;11.154;2022-10-22T12:56:34;24.20;60.80
41290;DHT22;36117;46.680;11.154;2022-10-22T12:59:34;24.40;61.10
41290;DHT22;36117;46.680;11.154;2022-10-22T13:02:10;24.70;59.60
41290;DHT22;36117;46.680;11.154;2022-10-22T13:04:40;24.90;58.40
41290;DHT22;36117;46.680;11.154;2022-10-22T13:09:45;25.20;58.30
41290;DHT22;36117;46.680;11.154;2022-10-22T13:12:12;25.10;57.30
41290;DHT22;36117;46.680;11.154;2022-10-22T13:14:43;25.10;56.70
41290;DHT22;36117;46.680;11.154;2022-10-22T13:17:35;25.60;56.40
41290;DHT22;36117;46.680;11.154;2022-10-22T13:20:02;25.60;56.60
41290;DHT22;36117;46.680;11.154;2022-10-22T13:27:56;24.40;59.10
41290;DHT22;36117;46.680;11.154;2022-10-22T13:30:28;24.00;57.80
41290;DHT22;36117;46.680;11.154;2022-10-22T13:33:05;23.80;58.10
41290;DHT22;36117;46.680;11.154;2022-10-22T13:35:36;24.00;58.40
41290;DHT22;36117;46.680;11.154;2022-10-22T13:38:07;24.00;59.00
41290;DHT22;36117;46.680;11.154;2022-10-22T13:40:37;23.60;59.90
41290;DHT22;36117;46.680;11.154;2022-10-22T13:43:03;23.50;62.80
41290;DHT22;36117;46.680;11.154;2022-10-22T13:45:29;23.70;61.10
41290;DHT22;36117;46.680;11.154;2022-10-22T13:47:54;23.40;60.90
41290;DHT22;36117;46.680;11.154;2022-10-22T13:50:21;23.20;61.60
41290;DHT22;36117;46.680;11.154;2022-10-22T13:52:55;23.20;62.50
41290;DHT22;36117;46.680;11.154;2022-10-22T13:55:27;23.30;63.20
41290;DHT22;36117;46.680;11.154;2022-10-22T13:58:12;22.90;64.20
41290;DHT22;36117;46.680;11.154;2022-10-22T14:00:42;22.70;64.50
41290;DHT22;36117;46.680;11.154;2022-10-22T14:03:16;22.80;63.40
41290;DHT22;36117;46.680;11.154;2022-10-22T14:05:45;22.70;64.20
41290;DHT22;36117;46.680;11.154;2022-10-22T14:08:14;22.50;65.10
41290;DHT22;36117;46.680;11.154;2022-10-22T14:10:41;22.40;65.70
41290;DHT22;36117;46.680;11.154;2022-10-22T14:13:12;22.40;65.90
41290;DHT22;36117;46.680;11.154;2022-10-22T14:15:39;22.50;65.50
41290;DHT22;36117;46.680;11.154;2022-10-22T14:18:06;22.80;65.00
41290;DHT22;36117;46.680;11.154;2022-10-22T14:20:36;22.60;65.70
41290;DHT22;36117;46.680;11.154;2022-10-22T14:23:13;22.80;65.50
41290;DHT22;36117;46.680;11.154;2022-10-22T14:25:40;22.80;65.40
41290;DHT22;36117;46.680;11.154;2022-10-22T14:28:08;22.90;65.00
41290;DHT22;36117;46.680;11.154;2022-10-22T14:30:35;22.70;65.40
41290;DHT22;36117;46.680;11.154;2022-10-22T14:33:00;22.40;66.00
41290;DHT22;36117;46.680;11.154;2022-10-22T14:35:26;22.40;66.00
41290;DHT22;36117;46.680;11.154;2022-10-22T14:37:52;22.00;66.20
41290;DHT22;36117;46.680;11.154;2022-10-22T14:40:19;21.90;67.90
41290;DHT22;36117;46.680;11.154;2022-10-22T14:42:47;21.50;68.00
41290;DHT22;36117;46.680;11.154;2022-10-22T14:45:21;21.50;68.80
41290;DHT22;36117;46.680;11.154;2022-10-22T14:47:48;21.60;69.00
41290;DHT22;36117;46.680;11.154;2022-10-22T14:50:14;21.50;67.90
41290;DHT22;36117;46.680;11.154;2022-10-22T14:52:41;21.40;68.70
41290;DHT22;36117;46.680;11.154;2022-10-22T14:55:11;21.40;70.50
41290;DHT22;36117;46.680;11.154;2022-10-22T14:57:37;21.70;70.80
41290;DHT22;36117;46.680;11.154;2022-10-22T15:00:06;21.90;70.30
41290;DHT22;36117;46.680;11.154;2022-10-22T15:02:33;22.00;70.60
41290;DHT22;36117;46.680;11.154;2022-10-22T15:04:58;22.00;69.90
41290;DHT22;36117;46.680;11.154;2022-10-22T15:07:25;21.90;70.20
41290;DHT22;36117;46.680;11.154;2022-10-22T15:09:55;21.90;69.90
41290;DHT22;36117;46.680;11.154;2022-10-22T15:12:22;21.90;69.20
41290;DHT22;36117;46.680;11.154;2022-10-22T15:14:48;21.90;69.30
41290;DHT22;36117;46.680;11.154;2022-10-22T15:17:15;21.80;70.10
41290;DHT22;36117;46.680;11.154;2022-10-22T15:19:41;21.70;70.20
41290;DHT22;36117;46.680;11.154;2022-10-22T15:22:08;21.70;70.70
41290;DHT22;36117;46.680;11.154;2022-10-22T15:24:34;21.70;70.70
41290;DHT22;36117;46.680;11.154;2022-10-22T15:27:00;21.60;70.50
41290;DHT22;36117;46.680;11.154;2022-10-22T15:29:28;21.60;70.70
41290;DHT22;36117;46.680;11.154;2022-10-22T15:31:55;21.50;71.30
41290;DHT22;36117;46.680;11.154;2022-10-22T15:34:28;21.50;72.00
41290;DHT22;36117;46.680;11.154;2022-10-22T15:36:56;21.50;72.30
41290;DHT22;36117;46.680;11.154;2022-10-22T15:39:22;21.40;72.10
41290;DHT22;36117;46.680;11.154;2022-10-22T15:41:49;21.40;72.90
41290;DHT22;36117;46.680;11.154;2022-10-22T15:44:18;21.20;73.10
41290;DHT22;36117;46.680;11.154;2022-10-22T15:46:44;21.00;73.80
41290;DHT22;36117;46.680;11.154;2022-10-22T15:49:10;20.90;75.00
41290;DHT22;36117;46.680;11.154;2022-10-22T15:51:38;20.70;75.80
41290;DHT22;36117;46.680;11.154;2022-10-22T15:54:04;20.70;75.70
41290;DHT22;36117;46.680;11.154;2022-10-22T15:56:30;20.80;75.40
41290;DHT22;36117;46.680;11.154;2022-10-22T15:59:02;20.70;76.00
41290;DHT22;36117;46.680;11.154;2022-10-22T16:01:29;20.70;76.20
41290;DHT22;36117;46.680;11.154;2022-10-22T16:03:55;20.50;76.70
41290;DHT22;36117;46.680;11.154;2022-10-22T16:08:59;20.40;77.30
41290;DHT22;36117;46.680;11.154;2022-10-22T16:11:27;20.20;77.80
41290;DHT22;36117;46.680;11.154;2022-10-22T16:13:54;20.30;77.60
41290;DHT22;36117;46.680;11.154;2022-10-22T16:16:21;20.20;77.70
41290;DHT22;36117;46.680;11.154;2022-10-22T16:18:47;20.10;77.50
41290;DHT22;36117;46.680;11.154;2022-10-22T16:21:13;20.00;78.00
41290;DHT22;36117;46.680;11.154;2022-10-22T16:23:41;20.00;78.20
41290;DHT22;36117;46.680;11.154;2022-10-22T16:26:07;19.70;78.60
41290;DHT22;36117;46.680;11.154;2022-10-22T16:28:33;19.70;79.30
41290;DHT22;36117;46.680;11.154;2022-10-22T16:31:03;19.80;79.10
41290;DHT22;36117;46.680;11.154;2022-10-22T16:33:31;19.70;79.10
41290;DHT22;36117;46.680;11.154;2022-10-22T16:35:58;19.70;79.30
41290;DHT22;36117;46.680;11.154;2022-10-22T16:38:24;19.40;79.80
41290;DHT22;36117;46.680;11.154;2022-10-22T16:40:50;19.40;80.50
41290;DHT22;36117;46.680;11.154;2022-10-22T16:43:17;19.50;80.40
41290;DHT22;36117;46.680;11.154;2022-10-22T16:45:47;19.50;80.30
41290;DHT22;36117;46.680;11.154;2022-10-22T16:48:17;19.50;80.00
41290;DHT22;36117;46.680;11.154;2022-10-22T16:50:43;19.40;80.40
41290;DHT22;36117;46.680;11.154;2022-10-22T16:53:10;19.40;81.10
41290;DHT22;36117;46.680;11.154;2022-10-22T16:55:37;19.40;80.20
41290;DHT22;36117;46.680;11.154;2022-10-22T16:58:03;19.40;80.60
41290;DHT22;36117;46.680;11.154;2022-10-22T17:03:05;19.30;81.90
41290;DHT22;36117;46.680;11.154;2022-10-22T17:05:34;19.30;81.00
41290;DHT22;36117;46.680;11.154;2022-10-22T17:08:00;19.10;81.70
41290;DHT22;36117;46.680;11.154;2022-10-22T17:10:26;19.00;81.80
41290;DHT22;36117;46.680;11.154;2022-10-22T17:12:52;18.90;82.60
41290;DHT22;36117;46.680;11.154;2022-10-22T17:15:19;18.90;82.80
41290;DHT22;36117;46.680;11.154;2022-10-22T17:17:45;19.00;82.70
41290;DHT22;36117;46.680;11.154;2022-10-22T17:20:15;19.10;82.10
41290;DHT22;36117;46.680;11.154;2022-10-22T17:22:40;18.90;82.30
41290;DHT22;36117;46.680;11.154;2022-10-22T17:25:15;18.70;82.90
41290;DHT22;36117;46.680;11.154;2022-10-22T17:27:42;18.50;83.60
41290;DHT22;36117;46.680;11.154;2022-10-22T17:30:14;18.30;84.80
41290;DHT22;36117;46.680;11.154;2022-10-22T17:32:41;18.50;84.80
41290;DHT22;36117;46.680;11.154;2022-10-22T17:35:07;18.60;84.00
41290;DHT22;36117;46.680;11.154;2022-10-22T17:37:34;18.60;83.50
41290;DHT22;36117;46.680;11.154;2022-10-22T17:40:02;18.60;83.70
41290;DHT22;36117;46.680;11.154;2022-10-22T17:42:28;18.60;83.60
41290;DHT22;36117;46.680;11.154;2022-10-22T17:44:54;18.60;84.20
41290;DHT22;36117;46.680;11.154;2022-10-22T17:47:21;18.60;83.70
41290;DHT22;36117;46.680;11.154;2022-10-22T17:49:46;18.70;83.40
41290;DHT22;36117;46.680;11.154;2022-10-22T17:52:13;18.70;83.10
41290;DHT22;36117;46.680;11.154;2022-10-22T17:54:40;18.80;83.10
41290;DHT22;36117;46.680;11.154;2022-10-22T17:57:06;18.60;83.20
41290;DHT22;36117;46.680;11.154;2022-10-22T17:59:32;18.40;83.60
41290;DHT22;36117;46.680;11.154;2022-10-22T18:01:58;18.50;84.90
41290;DHT22;36117;46.680;11.154;2022-10-22T18:04:27;18.40;83.90
41290;DHT22;36117;46.680;11.154;2022-10-22T18:06:54;17.80;86.60
41290;DHT22;36117;46.680;11.154;2022-10-22T18:09:22;17.50;88.80
41290;DHT22;36117;46.680;11.154;2022-10-22T18:11:49;17.30;90.10
41290;DHT22;36117;46.680;11.154;2022-10-22T18:14:19;17.30;90.50
41290;DHT22;36117;46.680;11.154;2022-10-22T18:16:46;17.40;90.70
41290;DHT22;36117;46.680;11.154;2022-10-22T18:19:18;17.60;90.40
41290;DHT22;36117;46.680;11.154;2022-10-22T18:21:44;17.80;89.80
41290;DHT22;36117;46.680;11.154;2022-10-22T18:24:10;18.10;88.50
41290;DHT22;36117;46.680;11.154;2022-10-22T18:26:37;18.20;87.50
41290;DHT22;36117;46.680;11.154;2022-10-22T18:29:03;18.10;87.10
41290;DHT22;36117;46.680;11.154;2022-10-22T18:31:29;18.20;87.00
41290;DHT22;36117;46.680;11.154;2022-10-22T18:33:55;18.00;87.20
41290;DHT22;36117;46.680;11.154;2022-10-22T18:36:23;18.00;87.20
41290;DHT22;36117;46.680;11.154;2022-10-22T18:38:55;17.90;87.10
41290;DHT22;36117;46.680;11.154;2022-10-22T18:41:22;17.80;87.80
41290;DHT22;36117;46.680;11.154;2022-10-22T18:43:53;17.70;87.60
41290;DHT22;36117;46.680;11.154;2022-10-22T18:46:20;17.50;88.50
41290;DHT22;36117;46.680;11.154;2022-10-22T18:48:47;17.50;88.80
41290;DHT22;36117;46.680;11.154;2022-10-22T18:51:13;17.60;88.70
41290;DHT22;36117;46.680;11.154;2022-10-22T18:53:39;17.70;88.00
41290;DHT22;36117;46.680;11.154;2022-10-22T18:56:09;17.90;87.80
41290;DHT22;36117;46.680;11.154;2022-10-22T18:58:40;18.00;86.30
41290;DHT22;36117;46.680;11.154;2022-10-22T19:01:14;18.00;86.30
41290;DHT22;36117;46.680;11.154;2022-10-22T19:03:40;18.10;86.10
41290;DHT22;36117;46.680;11.154;2022-10-22T19:06:06;18.10;86.20
41290;DHT22;36117;46.680;11.154;2022-10-22T19:08:35;18.20;85.70
41290;DHT22;36117;46.680;11.154;2022-10-22T19:11:06;17.80;86.30
41290;DHT22;36117;46.680;11.154;2022-10-22T19:13:32;17.70;87.10
41290;DHT22;36117;46.680;11.154;2022-10-22T19:16:02;17.60;88.10
41290;DHT22;36117;46.680;11.154;2022-10-22T19:18:28;17.60;88.40
41290;DHT22;36117;46.680;11.154;2022-10-22T19:20:59;17.50;88.10
41290;DHT22;36117;46.680;11.154;2022-10-22T19:23:25;17.60;88.40
41290;DHT22;36117;46.680;11.154;2022-10-22T19:26:03;17.50;87.60
41290;DHT22;36117;46.680;11.154;2022-10-22T19:28:30;17.60;87.90
41290;DHT22;36117;46.680;11.154;2022-10-22T19:30:56;17.50;87.90
41290;DHT22;36117;46.680;11.154;2022-10-22T19:33:22;17.30;88.10
41290;DHT22;36117;46.680;11.154;2022-10-22T19:35:48;17.70;87.40
41290;DHT22;36117;46.680;11.154;2022-10-22T19:38:14;17.70;86.80
41290;DHT22;36117;46.680;11.154;2022-10-22T19:40:40;17.50;87.20
41290;DHT22;36117;46.680;11.154;2022-10-22T19:43:06;17.60;87.30
41290;DHT22;36117;46.680;11.154;2022-10-22T19:45:32;17.60;87.20
41290;DHT22;36117;46.680;11.154;2022-10-22T19:47:58;17.50;87.80
41290;DHT22;36117;46.680;11.154;2022-10-22T19:50:24;17.60;87.20
41290;DHT22;36117;46.680;11.154;2022-10-22T19:52:50;17.60;87.00
41290;DHT22;36117;46.680;11.154;2022-10-22T19:55:16;17.50;87.60
41290;DHT22;36117;46.680;11.154;2022-10-22T19:57:42;17.50;87.50
41290;DHT22;36117;46.680;11.154;2022-10-22T20:00:08;17.40;87.60
41290;DHT22;36117;46.680;11.154;2022-10-22T20:02:35;17.10;88.60
41290;DHT22;36117;46.680;11.154;2022-10-22T20:05:01;17.20;88.90
41290;DHT22;36117;46.680;11.154;2022-10-22T20:07:27;17.10;88.80
41290;DHT22;36117;46.680;11.154;2022-10-22T20:09:53;17.20;88.80
41290;DHT22;36117;46.680;11.154;2022-10-22T20:12:19;17.30;88.20
41290;DHT22;36117;46.680;11.154;2022-10-22T20:14:45;17.30;88.10
41290;DHT22;36117;46.680;11.154;2022-10-22T20:17:11;17.40;87.30
41290;DHT22;36117;46.680;11.154;2022-10-22T20:19:37;17.10;88.10
41290;DHT22;36117;46.680;11.154;2022-10-22T20:22:02;17.30;87.80
41290;DHT22;36117;46.680;11.154;2022-10-22T20:24:28;17.40;87.70
41290;DHT22;36117;46.680;11.154;2022-10-22T20:26:54;17.60;87.70
41290;DHT22;36117;46.680;11.154;2022-10-22T20:29:20;17.50;87.60
41290;DHT22;36117;46.680;11.154;2022-10-22T20:31:46;17.20;88.50
41290;DHT22;36117;46.680;11.154;2022-10-22T20:34:12;17.10;89.30
41290;DHT22;36117;46.680;11.154;2022-10-22T20:36:38;16.80;89.90
41290;DHT22;36117;46.680;11.154;2022-10-22T20:39:06;16.80;90.30
41290;DHT22;36117;46.680;11.154;2022-10-22T20:41:34;16.80;89.90
41290;DHT22;36117;46.680;11.154;2022-10-22T20:44:00;16.80;90.30
41290;DHT22;36117;46.680;11.154;2022-10-22T20:46:28;16.90;89.90
41290;DHT22;36117;46.680;11.154;2022-10-22T20:48:58;16.70;89.90
41290;DHT22;36117;46.680;11.154;2022-10-22T20:51:24;16.70;90.10
41290;DHT22;36117;46.680;11.154;2022-10-22T20:53:50;16.80;89.60
41290;DHT22;36117;46.680;11.154;2022-10-22T20:56:17;16.90;89.60
41290;DHT22;36117;46.680;11.154;2022-10-22T20:58:43;16.80;89.00
41290;DHT22;36117;46.680;11.154;2022-10-22T21:01:14;16.80;89.20
41290;DHT22;36117;46.680;11.154;2022-10-22T21:03:46;16.60;89.80
41290;DHT22;36117;46.680;11.154;2022-10-22T21:06:12;16.90;89.20
41290;DHT22;36117;46.680;11.154;2022-10-22T21:08:38;16.90;89.20
41290;DHT22;36117;46.680;11.154;2022-10-22T21:11:04;16.70;90.00
41290;DHT22;36117;46.680;11.154;2022-10-22T21:13:33;16.80;89.30
41290;DHT22;36117;46.680;11.154;2022-10-22T21:16:06;16.90;89.40
41290;DHT22;36117;46.680;11.154;2022-10-22T21:18:32;16.90;88.60
41290;DHT22;36117;46.680;11.154;2022-10-22T21:20:58;17.00;88.40
41290;DHT22;36117;46.680;11.154;2022-10-22T21:23:24;17.10;88.00
41290;DHT22;36117;46.680;11.154;2022-10-22T21:25:56;16.90;88.70
41290;DHT22;36117;46.680;11.154;2022-10-22T21:28:22;16.90;89.30
41290;DHT22;36117;46.680;11.154;2022-10-22T21:30:48;16.90;89.10
41290;DHT22;36117;46.680;11.154;2022-10-22T21:33:14;16.60;89.30
41290;DHT22;36117;46.680;11.154;2022-10-22T21:35:47;16.70;89.40
41290;DHT22;36117;46.680;11.154;2022-10-22T21:38:13;16.90;88.70
41290;DHT22;36117;46.680;11.154;2022-10-22T21:40:39;16.90;88.20
41290;DHT22;36117;46.680;11.154;2022-10-22T21:43:05;17.00;88.20
41290;DHT22;36117;46.680;11.154;2022-10-22T21:45:30;16.90;88.20
41290;DHT22;36117;46.680;11.154;2022-10-22T21:47:56;17.00;88.30
41290;DHT22;36117;46.680;11.154;2022-10-22T21:50:22;16.70;88.60
41290;DHT22;36117;46.680;11.154;2022-10-22T21:52:48;16.50;89.50
41290;DHT22;36117;46.680;11.154;2022-10-22T21:55:13;16.70;88.70
41290;DHT22;36117;46.680;11.154;2022-10-22T21:57:39;16.70;88.30
41290;DHT22;36117;46.680;11.154;2022-10-22T22:00:07;16.60;88.70
41290;DHT22;36117;46.680;11.154;2022-10-22T22:02:32;16.70;88.30
41290;DHT22;36117;46.680;11.154;2022-10-22T22:04:58;16.60;88.40
41290;DHT22;36117;46.680;11.154;2022-10-22T22:07:24;16.40;88.90
41290;DHT22;36117;46.680;11.154;2022-10-22T22:09:50;16.50;89.20
41290;DHT22;36117;46.680;11.154;2022-10-22T22:12:16;16.50;88.80
41290;DHT22;36117;46.680;11.154;2022-10-22T22:14:42;16.70;88.80
41290;DHT22;36117;46.680;11.154;2022-10-22T22:17:08;16.70;88.40
41290;DHT22;36117;46.680;11.154;2022-10-22T22:19:39;16.70;88.60
41290;DHT22;36117;46.680;11.154;2022-10-22T22:22:05;16.60;88.40
41290;DHT22;36117;46.680;11.154;2022-10-22T22:24:31;16.70;88.90
41290;DHT22;36117;46.680;11.154;2022-10-22T22:26:57;16.60;89.20
41290;DHT22;36117;46.680;11.154;2022-10-22T22:29:23;16.40;89.00
41290;DHT22;36117;46.680;11.154;2022-10-22T22:31:49;16.40;89.90
41290;DHT22;36117;46.680;11.154;2022-10-22T22:34:16;16.60;88.80
41290;DHT22;36117;46.680;11.154;2022-10-22T22:36:46;16.40;88.60
41290;DHT22;36117;46.680;11.154;2022-10-22T22:39:15;16.40;89.40
41290;DHT22;36117;46.680;11.154;2022-10-22T22:41:41;16.60;89.00
41290;DHT22;36117;46.680;11.154;2022-10-22T22:44:08;16.70;88.20
41290;DHT22;36117;46.680;11.154;2022-10-22T22:46:34;16.40;88.70
41290;DHT22;36117;46.680;11.154;2022-10-22T22:49:00;16.40;89.10
41290;DHT22;36117;46.680;11.154;2022-10-22T22:51:26;16.40;89.30
41290;DHT22;36117;46.680;11.154;2022-10-22T22:53:52;16.20;89.60
41290;DHT22;36117;46.680;11.154;2022-10-22T22:56:20;16.20;89.90
41290;DHT22;36117;46.680;11.154;2022-10-22T22:58:48;16.30;89.70
41290;DHT22;36117;46.680;11.154;2022-10-22T23:01:31;16.30;89.60
41290;DHT22;36117;46.680;11.154;2022-10-22T23:03:59;16.40;89.20
41290;DHT22;36117;46.680;11.154;2022-10-22T23:06:28;16.40;88.90
41290;DHT22;36117;46.680;11.154;2022-10-22T23:08:54;16.50;88.60
41290;DHT22;36117;46.680;11.154;2022-10-22T23:11:22;16.30;88.70
41290;DHT22;36117;46.680;11.154;2022-10-22T23:13:52;16.30;88.80
41290;DHT22;36117;46.680;11.154;2022-10-22T23:16:20;16.20;89.10
41290;DHT22;36117;46.680;11.154;2022-10-22T23:18:47;16.10;89.50
41290;DHT22;36117;46.680;11.154;2022-10-22T23:21:18;16.20;89.10
41290;DHT22;36117;46.680;11.154;2022-10-22T23:23:46;16.40;88.50
41290;DHT22;36117;46.680;11.154;2022-10-22T23:26:13;16.40;88.20
41290;DHT22;36117;46.680;11.154;2022-10-22T23:28:39;16.50;87.90
41290;DHT22;36117;46.680;11.154;2022-10-22T23:31:06;16.70;87.70
41290;DHT22;36117;46.680;11.154;2022-10-22T23:33:33;16.50;87.30
41290;DHT22;36117;46.680;11.154;2022-10-22T23:36:00;16.70;87.40
41290;DHT22;36117;46.680;11.154;2022-10-22T23:38:26;16.70;86.80
41290;DHT22;36117;46.680;11.154;2022-10-22T23:40:55;16.40;87.10
41290;DHT22;36117;46.680;11.154;2022-10-22T23:43:23;16.40;88.30
41290;DHT22;36117;46.680;11.154;2022-10-22T23:45:48;16.00;89.30
41290;DHT22;36117;46.680;11.154;2022-10-22T23:48:14;15.90;90.20
41290;DHT22;36117;46.680;11.154;2022-10-22T23:50:40;15.90;90.40
41290;DHT22;36117;46.680;11.154;2022-10-22T23:53:06;16.30;90.00
41290;DHT22;36117;46.680;11.154;2022-10-22T23:55:36;16.30;89.10
41290;DHT22;36117;46.680;11.154;2022-10-22T23:58:02;16.10;89.70
